Time;durP1;ratioP1;P1;durP2;ratioP2;P2;SDS_P1;SDS_P2;PMS_P1;PMS_P2;Temp;Humidity;BMP_temperature;BMP_pressure;BME280_temperature;BME280_humidity;BME280_pressure;Samples;Min_cycle;Max_cycle;Signal;HPM_P1;HPM_P2
2022/08/16 00:01:56;;;;;;;4.53;3.30;;;19.80;1.00;;;;;;4967745;28;20212;-72
2022/08/16 00:04:22;;;;;;;3.97;3.40;;;19.80;1.00;;;;;;4959508;28;20480;-73
2022/08/16 00:06:48;;;;;;;3.50;3.20;;;19.80;1.00;;;;;;4958406;28;20501;-78
2022/08/16 00:09:14;;;;;;;4.23;3.60;;;19.70;1.00;;;;;;4965690;28;20855;-78
2022/08/16 00:11:42;;;;;;;6.13;3.60;;;19.70;1.00;;;;;;4959442;28;20543;-78
2022/08/16 00:14:16;;;;;;;6.27;3.17;;;19.60;1.00;;;;;;4970488;28;20700;-79
2022/08/16 00:16:43;;;;;;;4.80;3.50;;;19.60;1.00;;;;;;4953074;28;20468;-79
2022/08/16 00:19:29;;;;;;;5.47;3.80;;;19.50;1.00;;;;;;4967161;28;20432;-79
2022/08/16 00:21:56;;;;;;;3.80;3.50;;;19.50;1.00;;;;;;4996320;28;20434;-73
2022/08/16 00:24:22;;;;;;;6.27;3.90;;;19.50;1.00;;;;;;5026932;28;20539;-72
2022/08/16 00:26:49;;;;;;;4.93;3.90;;;19.40;1.00;;;;;;5031381;28;20400;-72
2022/08/16 00:29:15;;;;;;;8.47;4.37;;;19.40;1.00;;;;;;5026535;28;20898;-72
2022/08/16 00:31:47;;;;;;;6.03;3.90;;;19.40;1.00;;;;;;5030972;28;20523;-72
2022/08/16 00:34:14;;;;;;;5.30;4.20;;;19.30;1.00;;;;;;5031756;28;20913;-72
2022/08/16 00:36:45;;;;;;;5.50;3.63;;;19.30;1.00;;;;;;5022125;28;20523;-72
2022/08/16 00:39:15;;;;;;;4.73;3.70;;;19.30;1.00;;;;;;5018540;28;20469;-73
2022/08/16 00:41:46;;;;;;;7.53;4.00;;;19.30;1.00;;;;;;5021052;28;20785;-72
2022/08/16 00:44:13;;;;;;;5.37;3.60;;;19.20;1.00;;;;;;5035051;28;20471;-72
2022/08/16 00:47:04;;;;;;;6.13;3.83;;;19.20;1.00;;;;;;5016989;28;20426;-72
2022/08/16 00:49:32;;;;;;;6.47;4.50;;;19.20;1.00;;;;;;5023897;28;20755;-72
2022/08/16 00:52:00;;;;;;;5.40;3.97;;;19.20;1.00;;;;;;5036333;28;20451;-79
2022/08/16 00:54:31;;;;;;;5.07;4.00;;;19.20;1.00;;;;;;5016822;28;20911;-79
2022/08/16 00:57:01;;;;;;;7.80;4.60;;;19.20;1.00;;;;;;5018100;28;20392;-79
2022/08/16 00:59:38;;;;;;;8.37;4.57;;;19.10;1.00;;;;;;5036246;28;20457;-80
2022/08/16 01:02:08;;;;;;;9.03;4.13;;;19.10;1.00;;;;;;5036421;28;20413;-79
2022/08/16 01:04:42;;;;;;;7.23;4.23;;;19.00;1.00;;;;;;5021720;28;20491;-79
2022/08/16 01:07:37;;;;;;;6.47;5.13;;;19.00;1.00;;;;;;5017442;28;20425;-79
2022/08/16 01:10:06;;;;;;;6.37;4.63;;;19.00;1.00;;;;;;5016626;28;20441;-79
2022/08/16 01:12:54;;;;;;;7.30;4.20;;;18.90;1.00;;;;;;5016345;28;20381;-79
2022/08/16 01:15:20;;;;;;;4.83;4.27;;;18.90;1.00;;;;;;5016497;28;20875;-79
2022/08/16 01:18:03;;;;;;;6.23;4.30;;;18.80;1.00;;;;;;5020027;28;20860;-79
2022/08/16 01:20:35;;;;;;;7.27;4.43;;;18.70;1.00;;;;;;5018912;28;20738;-73
2022/08/16 01:23:15;;;;;;;6.20;4.40;;;18.60;1.00;;;;;;5025183;28;20910;-72
2022/08/16 01:25:45;;;;;;;5.50;5.00;;;18.50;1.00;;;;;;5020920;28;20482;-72
2022/08/16 01:28:16;;;;;;;6.23;4.17;;;18.50;1.00;;;;;;5026327;28;20447;-73
2022/08/16 01:30:46;;;;;;;7.93;4.23;;;18.50;1.00;;;;;;5023983;28;20877;-73
2022/08/16 01:33:12;;;;;;;6.17;4.93;;;18.40;1.00;;;;;;5020922;28;20457;-72
2022/08/16 01:35:46;;;;;;;6.87;3.77;;;18.40;1.00;;;;;;5022469;28;20427;-73
2022/08/16 01:38:30;;;;;;;4.90;4.30;;;18.50;1.00;;;;;;5022398;28;20198;-73
2022/08/16 01:41:00;;;;;;;4.93;4.43;;;18.40;1.00;;;;;;5026373;28;20432;-73
2022/08/16 01:43:26;;;;;;;6.53;4.90;;;18.40;1.00;;;;;;5024430;28;20472;-72
2022/08/16 01:45:56;;;;;;;9.03;4.90;;;18.40;1.00;;;;;;5028128;28;20446;-72
2022/08/16 01:48:28;;;;;;;8.80;4.23;;;18.40;1.00;;;;;;5021781;28;20911;-73
2022/08/16 01:50:54;;;;;;;5.47;4.50;;;18.30;1.00;;;;;;5033363;28;20437;-79
2022/08/16 01:53:27;;;;;;;6.40;4.37;;;18.20;1.00;;;;;;5035546;28;20403;-79
2022/08/16 01:55:55;;;;;;;5.00;3.90;;;18.20;1.00;;;;;;5026927;28;20179;-79
2022/08/16 01:58:30;;;;;;;10.27;4.50;;;18.20;1.00;;;;;;5034405;28;20857;-80
2022/08/16 02:00:56;;;;;;;6.80;4.63;;;18.10;1.00;;;;;;5029915;28;20423;-79
2022/08/16 02:03:30;;;;;;;6.23;4.80;;;18.10;1.00;;;;;;5028237;28;20444;-79
2022/08/16 02:05:56;;;;;;;9.53;5.03;;;18.10;1.00;;;;;;5035765;28;20932;-72
2022/08/16 02:08:22;;;;;;;8.60;4.47;;;18.10;1.00;;;;;;5021270;28;20458;-73
2022/08/16 02:10:47;;;;;;;5.93;4.80;;;18.10;1.00;;;;;;5043357;28;20679;-73
2022/08/16 02:13:13;;;;;;;5.63;4.67;;;18.10;1.00;;;;;;5027332;28;20556;-73
2022/08/16 02:15:40;;;;;;;5.40;4.80;;;18.10;1.00;;;;;;5017206;28;20266;-72
2022/08/16 02:18:13;;;;;;;11.60;5.00;;;18.10;1.00;;;;;;5031083;28;20274;-73
2022/08/16 02:20:40;;;;;;;13.03;4.90;;;18.10;1.00;;;;;;5031712;28;20812;-73
2022/08/16 02:23:07;;;;;;;7.23;4.23;;;18.00;1.00;;;;;;5032138;28;20461;-79
2022/08/16 02:25:34;;;;;;;9.10;5.00;;;18.00;1.00;;;;;;5015029;28;20451;-79
2022/08/16 02:28:01;;;;;;;6.00;4.77;;;18.00;1.00;;;;;;5028309;28;20503;-79
2022/08/16 02:30:29;;;;;;;14.90;5.40;;;17.90;1.00;;;;;;5025648;28;20462;-79
2022/08/16 02:32:57;;;;;;;5.60;5.00;;;17.80;1.00;;;;;;5032591;28;20433;-80
2022/08/16 02:35:32;;;;;;;9.00;5.03;;;17.80;1.00;;;;;;5014966;28;20422;-79
2022/08/16 02:38:00;;;;;;;7.57;4.97;;;17.80;1.00;;;;;;5019058;28;20468;-80
2022/08/16 02:40:32;;;;;;;7.60;4.37;;;17.70;1.00;;;;;;5034310;28;20939;-80
2022/08/16 02:43:01;;;;;;;6.47;5.47;;;17.70;1.00;;;;;;5031460;28;20899;-79
2022/08/16 02:46:01;;;;;;;6.67;4.73;;;17.60;1.00;;;;;;5034709;28;20861;-79
2022/08/16 02:48:29;;;;;;;4.90;4.40;;;17.60;1.00;;;;;;5026488;28;20400;-79
2022/08/16 02:51:03;;;;;;;5.27;4.77;;;17.60;1.00;;;;;;5033895;28;20900;-79
2022/08/16 02:53:31;;;;;;;8.93;5.33;;;17.50;1.00;;;;;;5030400;28;20401;-79
2022/08/16 02:56:00;;;;;;;8.03;6.07;;;17.50;1.00;;;;;;5021529;28;20472;-79
2022/08/16 02:58:32;;;;;;;7.43;5.20;;;17.40;1.00;;;;;;5020244;28;20444;-79
2022/08/16 03:00:58;;;;;;;7.23;4.80;;;17.40;1.00;;;;;;5022917;28;20519;-79
2022/08/16 03:03:26;;;;;;;8.23;5.73;;;17.40;1.00;;;;;;5031746;28;20438;-79
2022/08/16 03:05:52;;;;;;;9.50;5.37;;;17.40;1.00;;;;;;5020787;28;20448;-79
2022/08/16 03:08:18;;;;;;;12.87;5.20;;;17.40;1.00;;;;;;5033848;28;20450;-73
2022/08/16 03:10:44;;;;;;;8.47;5.30;;;17.30;1.00;;;;;;5026901;28;20186;-73
2022/08/16 03:13:11;;;;;;;7.50;5.00;;;17.30;1.00;;;;;;5021217;28;20499;-73
2022/08/16 03:15:37;;;;;;;8.80;5.23;;;17.20;1.00;;;;;;5014990;28;20411;-73
2022/08/16 03:18:03;;;;;;;7.63;5.60;;;17.20;1.00;;;;;;5016473;28;20507;-72
2022/08/16 03:20:29;;;;;;;9.40;5.40;;;17.20;1.00;;;;;;5016784;28;20515;-72
2022/08/16 03:22:54;;;;;;;10.80;6.17;;;17.20;1.00;;;;;;5016867;28;20202;-78
2022/08/16 03:25:24;;;;;;;7.10;5.43;;;17.30;1.00;;;;;;5020939;28;20633;-80
2022/08/16 03:28:01;;;;;;;6.03;5.33;;;17.20;1.00;;;;;;5033281;28;20265;-80
2022/08/16 03:30:54;;;;;;;7.67;4.80;;;17.10;1.00;;;;;;5033791;28;20395;-80
2022/08/16 03:33:25;;;;;;;7.23;5.60;;;17.20;1.00;;;;;;5024762;28;20470;-80
2022/08/16 03:35:58;;;;;;;8.50;5.27;;;17.10;1.00;;;;;;5033929;28;20474;-80
2022/08/16 03:38:25;;;;;;;8.40;5.63;;;17.10;1.00;;;;;;5028718;28;20420;-72
2022/08/16 03:40:51;;;;;;;7.60;5.40;;;17.00;1.00;;;;;;5028329;28;20402;-73
2022/08/16 03:43:19;;;;;;;10.70;5.10;;;17.00;1.00;;;;;;5023226;28;20478;-73
2022/08/16 03:45:44;;;;;;;7.10;5.67;;;17.00;1.00;;;;;;5015431;28;20397;-73
2022/08/16 03:48:12;;;;;;;9.30;5.50;;;17.00;1.00;;;;;;5025082;28;20434;-73
2022/08/16 03:50:43;;;;;;;8.00;5.27;;;16.90;1.00;;;;;;5026151;28;20630;-73
2022/08/16 03:53:12;;;;;;;8.30;6.10;;;16.90;1.00;;;;;;5016276;28;20960;-79
2022/08/16 03:55:42;;;;;;;9.70;5.80;;;16.90;1.00;;;;;;5031722;28;20485;-80
2022/08/16 03:58:18;;;;;;;8.77;6.13;;;16.90;1.00;;;;;;5053482;28;20735;-79
2022/08/16 04:00:45;;;;;;;7.80;5.70;;;16.80;1.00;;;;;;5035228;28;20796;-80
2022/08/16 04:03:36;;;;;;;8.97;5.60;;;16.80;1.00;;;;;;5033582;28;20413;-79
2022/08/16 04:06:12;;;;;;;7.73;5.20;;;16.80;1.00;;;;;;5021965;28;20435;-80
2022/08/16 04:08:54;;;;;;;7.67;5.80;;;16.70;1.00;;;;;;5040712;28;20418;-80
2022/08/16 04:11:36;;;;;;;12.43;6.67;;;16.80;1.00;;;;;;5024391;28;20535;-80
2022/08/16 04:14:06;;;;;;;7.13;5.50;;;16.80;1.00;;;;;;5024835;28;20441;-80
2022/08/16 04:16:36;;;;;;;9.43;5.77;;;16.80;1.00;;;;;;5022882;28;20415;-80
2022/08/16 04:19:36;;;;;;;8.87;6.20;;;16.70;1.00;;;;;;5037297;28;20436;-84
2022/08/16 04:22:06;;;;;;;9.57;5.80;;;16.70;1.00;;;;;;5028557;28;20543;-83
2022/08/16 04:25:02;;;;;;;6.50;5.30;;;16.70;1.00;;;;;;5033031;28;20426;-85
2022/08/16 04:28:01;;;;;;;8.33;6.37;;;16.70;1.00;;;;;;5024120;28;20437;-85
2022/08/16 04:31:00;;;;;;;8.73;5.67;;;16.70;1.00;;;;;;5020588;28;20423;-85
2022/08/16 04:33:30;;;;;;;11.57;5.80;;;16.70;1.00;;;;;;5023615;28;20973;-85
2022/08/16 04:36:01;;;;;;;9.73;7.00;;;16.80;1.00;;;;;;5035622;28;20403;-85
2022/08/16 04:38:27;;;;;;;7.40;5.67;;;16.80;1.00;;;;;;5027230;28;20453;-76
2022/08/16 04:40:52;;;;;;;10.50;6.50;;;16.80;1.00;;;;;;5021036;28;20425;-76
2022/08/16 04:43:32;;;;;;;11.63;5.90;;;16.80;1.00;;;;;;5025466;28;20194;-76
2022/08/16 04:45:59;;;;;;;7.83;5.80;;;16.80;1.00;;;;;;5037413;28;20172;-76
2022/08/16 04:48:25;;;;;;;8.47;6.00;;;16.80;1.00;;;;;;5037316;28;20384;-76
2022/08/16 04:50:51;;;;;;;8.27;6.27;;;16.80;1.00;;;;;;5017731;28;20405;-76
2022/08/16 04:53:24;;;;;;;13.33;5.90;;;16.90;1.00;;;;;;5030780;28;20918;-75
2022/08/16 04:55:50;;;;;;;10.97;5.97;;;17.00;1.00;;;;;;5028845;28;20241;-75
2022/08/16 04:58:16;;;;;;;7.90;5.87;;;17.00;1.00;;;;;;5017754;28;20397;-74
2022/08/16 05:00:41;;;;;;;10.63;6.70;;;17.00;1.00;;;;;;5027677;28;20225;-75
2022/08/16 05:03:09;;;;;;;7.27;5.40;;;17.00;1.00;;;;;;5024409;28;20654;-75
2022/08/16 05:05:50;;;;;;;8.70;5.50;;;17.10;1.00;;;;;;5033224;28;20580;-75
2022/08/16 05:08:31;;;;;;;11.43;6.27;;;17.10;1.00;;;;;;5036691;28;20471;-85
2022/08/16 05:11:04;;;;;;;6.37;5.43;;;17.20;1.00;;;;;;5027275;28;20431;-85
2022/08/16 05:13:34;;;;;;;11.73;6.30;;;17.30;1.00;;;;;;5017069;28;20446;-85
2022/08/16 05:16:01;;;;;;;6.23;5.53;;;17.30;1.00;;;;;;5027069;28;20455;-85
2022/08/16 05:19:05;;;;;;;6.97;5.90;;;17.40;1.00;;;;;;5024651;28;20418;-85
2022/08/16 05:21:32;;;;;;;9.33;5.50;;;17.40;1.00;;;;;;5031342;28;20399;-85
2022/08/16 05:24:01;;;;;;;7.43;5.27;;;17.40;1.00;;;;;;5035785;28;20511;-75
2022/08/16 05:26:31;;;;;;;9.50;6.33;;;17.50;1.00;;;;;;5034263;28;20866;-74
2022/08/16 05:29:13;;;;;;;8.77;6.67;;;17.60;1.00;;;;;;5024190;28;20428;-75
2022/08/16 05:31:42;;;;;;;8.87;6.47;;;17.60;1.00;;;;;;5032760;28;20399;-74
2022/08/16 05:34:12;;;;;;;12.30;8.43;;;17.70;1.00;;;;;;5019003;28;20980;-75
2022/08/16 05:36:38;;;;;;;12.63;8.23;;;17.90;1.00;;;;;;5035348;28;20372;-74
2022/08/16 05:39:06;;;;;;;13.80;7.43;;;17.90;1.00;;;;;;5022780;28;20396;-74
2022/08/16 05:41:32;;;;;;;11.17;8.37;;;17.90;1.00;;;;;;5033122;28;20174;-75
2022/08/16 05:44:03;;;;;;;12.33;7.20;;;18.10;1.00;;;;;;5021131;28;20451;-75
2022/08/16 05:46:29;;;;;;;8.60;7.03;;;18.20;1.00;;;;;;5018897;28;20273;-75
2022/08/16 05:49:18;;;;;;;13.13;7.60;;;18.20;1.00;;;;;;5020710;28;20838;-75
2022/08/16 05:51:45;;;;;;;14.53;8.80;;;18.40;1.00;;;;;;5020529;28;20254;-75
2022/08/16 05:54:13;;;;;;;12.10;8.60;;;18.40;1.00;;;;;;5030530;28;20433;-83
2022/08/16 06:00:36;;;;;;;17.97;8.13;;;18.60;1.00;;;;;;5021392;28;20957;-83
2022/08/16 06:03:18;;;;;;;13.10;8.20;;;18.70;1.00;;;;;;5035732;28;20440;-83
2022/08/16 06:06:06;;;;;;;14.90;8.40;;;18.80;1.00;;;;;;5030815;28;20820;-82
2022/08/16 06:08:32;;;;;;;13.13;8.37;;;18.90;1.00;;;;;;5016122;28;20567;-72
2022/08/16 06:10:58;;;;;;;14.17;8.07;;;19.00;1.00;;;;;;5030823;28;20503;-72
2022/08/16 06:13:23;;;;;;;8.93;7.40;;;19.10;1.00;;;;;;5034937;28;20187;-72
2022/08/16 06:15:50;;;;;;;13.37;7.63;;;19.10;1.00;;;;;;5029221;28;20647;-72
2022/08/16 06:18:18;;;;;;;10.20;8.13;;;19.30;1.00;;;;;;5025652;28;20179;-72
2022/08/16 06:20:43;;;;;;;13.23;8.57;;;19.40;1.00;;;;;;5025698;28;20437;-72
2022/08/16 06:23:09;;;;;;;13.63;8.03;;;19.60;1.00;;;;;;5016441;28;20467;-72
2022/08/16 06:25:36;;;;;;;12.07;8.10;;;19.70;1.00;;;;;;5019457;28;20413;-71
2022/08/16 06:28:04;;;;;;;9.27;7.70;;;19.80;1.00;;;;;;5027394;28;20893;-71
2022/08/16 06:30:31;;;;;;;9.53;7.10;;;19.90;1.00;;;;;;5026931;28;20443;-72
2022/08/16 06:32:57;;;;;;;11.17;8.50;;;20.00;1.00;;;;;;5024346;28;21105;-72
2022/08/16 06:35:23;;;;;;;8.43;6.93;;;20.10;1.00;;;;;;5024675;28;20532;-72
2022/08/16 06:37:49;;;;;;;10.77;7.27;;;20.20;1.00;;;;;;5018858;28;20435;-72
2022/08/16 06:40:14;;;;;;;11.90;8.57;;;20.30;1.00;;;;;;5023887;28;20431;-72
2022/08/16 06:42:40;;;;;;;13.13;8.90;;;20.40;1.00;;;;;;5031279;28;20519;-72
2022/08/16 06:45:06;;;;;;;12.17;8.67;;;20.50;1.00;;;;;;5024295;28;20642;-72
2022/08/16 06:47:32;;;;;;;10.37;7.30;;;20.40;1.00;;;;;;5021086;28;20565;-72
2022/08/16 06:49:58;;;;;;;12.13;8.53;;;20.50;1.00;;;;;;5023961;28;20447;-72
2022/08/16 06:52:23;;;;;;;8.77;7.83;;;20.50;1.00;;;;;;5022558;28;20486;-72
2022/08/16 06:54:55;;;;;;;17.90;9.50;;;20.50;1.00;;;;;;5016095;28;20189;-82
2022/08/16 06:57:31;;;;;;;17.50;8.00;;;20.60;1.00;;;;;;5032566;28;20651;-81
2022/08/16 06:59:57;;;;;;;10.10;7.17;;;20.70;1.00;;;;;;5021055;28;20436;-82
2022/08/16 07:02:37;;;;;;;12.47;7.93;;;20.90;1.00;;;;;;5033807;28;20486;-82
2022/08/16 07:05:30;;;;;;;14.43;7.67;;;20.90;1.00;;;;;;5043492;28;20412;-82
2022/08/16 07:08:18;;;;;;;11.13;7.77;;;20.90;1.00;;;;;;5033880;28;20410;-81
2022/08/16 07:10:44;;;;;;;8.50;7.00;;;21.10;1.00;;;;;;5025314;28;20447;-72
2022/08/16 07:13:09;;;;;;;12.40;8.17;;;21.20;1.00;;;;;;5019612;28;20403;-84
2022/08/16 07:15:35;;;;;;;9.70;7.60;;;21.20;1.00;;;;;;5020333;28;20672;-69
2022/08/16 07:18:02;;;;;;;9.73;7.00;;;21.30;1.00;;;;;;5014561;28;20178;-69
2022/08/16 07:20:27;;;;;;;8.60;7.07;;;21.40;1.00;;;;;;5022837;28;20478;-69
2022/08/16 07:22:55;;;;;;;11.67;7.53;;;21.60;1.00;;;;;;5017929;28;20980;-69
2022/08/16 07:25:21;;;;;;;8.43;6.70;;;21.70;1.00;;;;;;5018755;28;20645;-69
2022/08/16 07:27:48;;;;;;;11.37;7.60;;;21.70;1.00;;;;;;5019523;28;20421;-69
2022/08/16 07:30:15;;;;;;;14.53;7.30;;;21.70;1.00;;;;;;5026021;28;20425;-75
2022/08/16 07:32:41;;;;;;;6.83;6.13;;;21.80;1.00;;;;;;5033997;28;20872;-76
2022/08/16 07:35:07;;;;;;;6.87;6.20;;;21.90;1.00;;;;;;5023539;28;20525;-77
2022/08/16 07:37:43;;;;;;;8.67;6.07;;;22.00;1.00;;;;;;5020847;28;20183;-77
2022/08/16 07:40:25;;;;;;;6.97;6.00;;;22.20;1.00;;;;;;5034118;28;20426;-78
2022/08/16 07:43:02;;;;;;;11.67;5.17;;;22.40;1.00;;;;;;5029166;28;20988;-77
2022/08/16 07:45:43;;;;;;;7.33;6.40;;;22.50;1.00;;;;;;5032493;28;20419;-77
2022/08/16 07:48:13;;;;;;;6.53;5.77;;;22.50;1.00;;;;;;5019908;28;20438;-77
2022/08/16 07:50:44;;;;;;;9.00;5.93;;;22.60;1.00;;;;;;5031691;28;20770;-77
2022/08/16 07:53:11;;;;;;;10.50;6.10;;;22.70;1.00;;;;;;5026526;28;20452;-77
2022/08/16 07:56:01;;;;;;;9.57;5.07;;;22.80;1.00;;;;;;5023647;28;20418;-84
2022/08/16 08:02:07;;;;;;;7.80;5.87;;;22.90;1.00;;;;;;5024098;28;20518;-83
2022/08/16 08:04:43;;;;;;;7.03;5.83;;;22.90;1.00;;;;;;5027483;28;20462;-82
2022/08/16 08:07:19;;;;;;;6.70;4.90;;;22.90;1.00;;;;;;5030649;28;20483;-82
2022/08/16 08:10:12;;;;;;;8.93;5.90;;;23.10;1.00;;;;;;5016850;28;20988;-82
2022/08/16 08:13:30;;;;;;;7.10;5.40;;;23.10;1.00;;;;;;5028129;28;20449;-82
2022/08/16 08:15:56;;;;;;;7.83;5.73;;;23.20;1.00;;;;;;5014341;28;20423;-82
2022/08/16 08:18:22;;;;;;;7.20;5.57;;;23.20;1.00;;;;;;5030138;28;20425;-82
2022/08/16 08:20:47;;;;;;;6.43;5.60;;;23.30;1.00;;;;;;5016130;28;20212;-82
2022/08/16 08:23:14;;;;;;;5.53;4.63;;;23.40;1.00;;;;;;5015080;28;20284;-82
2022/08/16 08:25:44;;;;;;;9.90;5.17;;;23.50;1.00;;;;;;5028517;28;20208;-81
2022/08/16 08:28:10;;;;;;;6.20;4.93;;;23.70;1.00;;;;;;5028752;28;20428;-82
2022/08/16 08:30:36;;;;;;;8.43;5.30;;;23.70;1.00;;;;;;5029725;28;20418;-82
2022/08/16 08:33:02;;;;;;;5.10;4.57;;;23.80;1.00;;;;;;5012895;28;20440;-82
2022/08/16 08:35:28;;;;;;;8.87;5.83;;;23.90;1.00;;;;;;5026599;28;20633;-82
2022/08/16 08:37:54;;;;;;;7.07;4.70;;;23.80;1.00;;;;;;5019023;28;20410;-82
2022/08/16 08:40:22;;;;;;;7.13;5.20;;;24.00;1.00;;;;;;5027968;28;20185;-68
2022/08/16 08:42:48;;;;;;;9.93;4.43;;;24.10;1.00;;;;;;5023578;28;20432;-68
2022/08/16 08:45:14;;;;;;;7.90;5.07;;;24.00;1.00;;;;;;5017887;28;20428;-69
2022/08/16 08:47:45;;;;;;;7.60;4.70;;;24.10;1.00;;;;;;5023586;28;20185;-68
2022/08/16 08:50:11;;;;;;;6.73;5.50;;;24.30;1.00;;;;;;5017358;28;20450;-69
2022/08/16 08:52:37;;;;;;;5.63;4.93;;;24.30;1.00;;;;;;5033297;28;20395;-68
2022/08/16 08:55:06;;;;;;;6.40;4.87;;;24.40;1.00;;;;;;5028249;28;20475;-77
2022/08/16 08:57:32;;;;;;;7.40;5.67;;;24.40;1.00;;;;;;5025571;28;20173;-77
2022/08/16 08:59:57;;;;;;;5.43;4.87;;;24.30;1.00;;;;;;5032147;28;20395;-77
2022/08/16 09:02:23;;;;;;;6.20;4.90;;;24.30;1.00;;;;;;5035265;28;20197;-77
2022/08/16 09:04:49;;;;;;;6.70;4.50;;;24.40;1.00;;;;;;5028282;28;20569;-77
2022/08/16 09:07:14;;;;;;;5.40;4.90;;;24.50;1.00;;;;;;5017095;28;20230;-76
2022/08/16 09:09:40;;;;;;;8.57;4.67;;;24.60;1.00;;;;;;5028656;28;20187;-77
2022/08/16 09:12:07;;;;;;;7.37;4.70;;;24.80;1.00;;;;;;5024234;28;20558;-68
2022/08/16 09:14:38;;;;;;;5.00;4.60;;;25.10;1.00;;;;;;5031611;28;20278;-68
2022/08/16 09:17:05;;;;;;;5.37;4.57;;;25.40;1.00;;;;;;5033174;28;20480;-68
2022/08/16 09:19:32;;;;;;;4.50;4.10;;;25.70;1.00;;;;;;5027850;28;20466;-68
2022/08/16 09:21:58;;;;;;;5.13;4.53;;;26.00;1.00;;;;;;5027302;28;20968;-68
2022/08/16 09:24:23;;;;;;;4.30;3.90;;;25.80;1.00;;;;;;5016431;28;20430;-68
2022/08/16 09:26:49;;;;;;;5.70;3.87;;;25.80;1.00;;;;;;5021172;28;20234;-68
2022/08/16 09:29:15;;;;;;;4.83;3.70;;;26.00;1.00;;;;;;5016563;28;20179;-68
2022/08/16 09:31:40;;;;;;;5.43;4.43;;;26.20;1.00;;;;;;5030239;28;20594;-68
2022/08/16 09:34:06;;;;;;;4.40;3.90;;;26.50;1.00;;;;;;5032472;28;20195;-68
2022/08/16 09:36:31;;;;;;;4.30;3.97;;;26.40;1.00;;;;;;5024641;28;20193;-68
2022/08/16 09:38:57;;;;;;;5.27;4.40;;;26.40;1.00;;;;;;5027899;28;20181;-68
2022/08/16 09:41:23;;;;;;;4.30;3.90;;;26.20;1.00;;;;;;5023316;28;20633;-69
2022/08/16 09:43:49;;;;;;;4.70;3.87;;;26.20;1.00;;;;;;5029334;28;20457;-68
2022/08/16 09:46:14;;;;;;;8.03;4.10;;;26.50;1.00;;;;;;5022889;28;20196;-68
2022/08/16 09:48:40;;;;;;;5.93;4.50;;;26.60;1.00;;;;;;5028204;28;20221;-68
2022/08/16 09:51:08;;;;;;;8.17;3.87;;;26.70;1.00;;;;;;5026748;28;20185;-69
2022/08/16 09:53:34;;;;;;;4.40;4.00;;;26.90;1.00;;;;;;5023062;28;20179;-68
2022/08/16 09:56:01;;;;;;;10.20;4.73;;;27.00;1.00;;;;;;5022698;28;20423;-77
2022/08/16 09:58:27;;;;;;;4.27;3.93;;;27.20;1.00;;;;;;5021454;28;20846;-77
2022/08/16 10:00:53;;;;;;;14.97;4.10;;;27.20;1.00;;;;;;5022476;28;20472;-77
2022/08/16 10:03:19;;;;;;;5.07;4.40;;;26.90;1.00;;;;;;5024219;28;20479;-77
2022/08/16 10:05:45;;;;;;;4.60;4.20;;;26.70;1.00;;;;;;5021601;28;20791;-85
2022/08/16 10:08:12;;;;;;;5.67;4.57;;;26.60;1.00;;;;;;5019176;28;20801;-78
2022/08/16 10:13:10;;;;;;;5.33;4.47;;;26.60;1.00;;;;;;5019944;28;20960;-69
2022/08/16 10:13:27;;;;;;;9.00;4.83;;;26.70;1.00;;;;;;5016098;28;20430;-69
2022/08/16 10:15:58;;;;;;;4.70;3.50;;;26.90;1.00;;;;;;5032811;28;20436;-69
2022/08/16 10:18:26;;;;;;;4.27;3.60;;;26.90;1.00;;;;;;5025757;28;20882;-68
2022/08/16 10:20:53;;;;;;;14.50;3.20;;;27.10;1.00;;;;;;5029821;28;20437;-68
2022/08/16 10:23:20;;;;;;;3.63;3.33;;;27.40;1.00;;;;;;5026995;28;20546;-69
2022/08/16 10:25:47;;;;;;;3.43;3.13;;;27.70;1.00;;;;;;5024909;28;20855;-69
2022/08/16 10:28:13;;;;;;;9.67;3.90;;;27.90;1.00;;;;;;5031780;28;20444;-69
2022/08/16 10:30:43;;;;;;;10.80;3.83;;;28.10;1.00;;;;;;5023275;28;20899;-69
2022/08/16 10:33:13;;;;;;;4.50;4.10;;;28.20;1.00;;;;;;5033375;28;20446;-83
2022/08/16 10:35:40;;;;;;;5.57;4.70;;;27.60;1.00;;;;;;5032033;28;20435;-83
2022/08/16 10:38:05;;;;;;;4.83;4.43;;;27.30;1.00;;;;;;5034673;28;20794;-83
2022/08/16 10:40:31;;;;;;;4.90;4.00;;;27.20;1.00;;;;;;5025880;28;20434;-84
2022/08/16 10:43:01;;;;;;;4.37;3.97;;;27.20;1.00;;;;;;5018996;28;20218;-83
2022/08/16 10:45:30;;;;;;;5.40;3.87;;;27.00;1.00;;;;;;5027169;28;20179;-69
2022/08/16 10:47:56;;;;;;;6.80;3.97;;;27.20;1.00;;;;;;5021442;28;20821;-69
2022/08/16 10:50:22;;;;;;;8.10;4.07;;;27.10;1.00;;;;;;5021271;28;20487;-69
2022/08/16 10:52:48;;;;;;;7.83;3.87;;;27.20;1.00;;;;;;5029499;28;20410;-69
2022/08/16 10:55:14;;;;;;;5.53;3.60;;;27.30;1.00;;;;;;5023337;28;20185;-69
2022/08/16 10:57:40;;;;;;;12.10;3.73;;;27.30;1.00;;;;;;5014957;28;20186;-77
2022/08/16 11:00:11;;;;;;;3.90;3.47;;;27.30;1.00;;;;;;5023584;28;20456;-77
2022/08/16 11:02:37;;;;;;;7.03;3.90;;;27.30;1.00;;;;;;5034763;28;20940;-77
2022/08/16 11:05:04;;;;;;;5.10;4.53;;;27.50;1.00;;;;;;5024126;28;20508;-77
2022/08/16 11:07:30;;;;;;;4.70;4.30;;;27.50;1.00;;;;;;5030727;28;20529;-77
2022/08/16 11:09:57;;;;;;;5.27;3.80;;;27.50;1.00;;;;;;5026346;28;20539;-78
2022/08/16 11:12:24;;;;;;;5.17;4.00;;;27.60;1.00;;;;;;5029908;28;20235;-69
2022/08/16 11:14:50;;;;;;;4.77;4.27;;;27.60;1.00;;;;;;5021165;28;20467;-69
2022/08/16 11:17:15;;;;;;;4.77;3.93;;;27.50;1.00;;;;;;5022684;28;20444;-68
2022/08/16 11:19:41;;;;;;;7.87;4.07;;;27.30;1.00;;;;;;5020395;28;20534;-68
2022/08/16 11:22:06;;;;;;;4.40;4.00;;;27.10;1.00;;;;;;5024194;28;20188;-69
2022/08/16 11:24:32;;;;;;;4.30;3.70;;;27.00;1.00;;;;;;5019914;28;20303;-69
2022/08/16 11:26:59;;;;;;;4.30;3.90;;;26.90;1.00;;;;;;5016009;28;20642;-77
2022/08/16 11:29:24;;;;;;;4.13;3.43;;;26.60;1.00;;;;;;5019765;28;20823;-77
2022/08/16 11:31:50;;;;;;;4.27;3.87;;;26.60;1.00;;;;;;5016444;28;20447;-77
2022/08/16 11:34:16;;;;;;;7.13;3.77;;;26.70;1.00;;;;;;5020735;28;20201;-77
2022/08/16 11:36:42;;;;;;;5.17;3.73;;;26.80;1.00;;;;;;5021897;28;20195;-77
2022/08/16 11:39:07;;;;;;;5.43;3.47;;;27.00;1.00;;;;;;5016308;28;20421;-77
2022/08/16 11:41:37;;;;;;;9.33;3.83;;;27.10;1.00;;;;;;5022915;28;20193;-69
2022/08/16 11:44:04;;;;;;;3.93;3.63;;;27.30;1.00;;;;;;5016666;28;20195;-68
2022/08/16 11:46:30;;;;;;;4.60;3.20;;;27.40;1.00;;;;;;5018363;28;20438;-68
2022/08/16 11:48:56;;;;;;;3.67;3.37;;;27.60;1.00;;;;;;5019556;28;20418;-69
2022/08/16 11:51:21;;;;;;;4.43;3.60;;;27.70;1.00;;;;;;5019982;28;20243;-69
2022/08/16 11:53:47;;;;;;;3.33;3.13;;;27.90;1.00;;;;;;5028344;28;20645;-69
2022/08/16 11:56:13;;;;;;;6.30;3.40;;;28.10;1.00;;;;;;5026599;28;20208;-68
2022/08/16 11:58:38;;;;;;;5.60;3.67;;;28.30;1.00;;;;;;5019841;28;20192;-77
2022/08/16 12:01:05;;;;;;;3.20;2.97;;;28.30;1.00;;;;;;5024944;28;20206;-77
2022/08/16 12:03:32;;;;;;;3.60;2.83;;;28.70;1.00;;;;;;5012796;28;20211;-77
2022/08/16 12:06:01;;;;;;;3.30;3.00;;;29.20;1.00;;;;;;5024164;28;20441;-77
2022/08/16 12:08:28;;;;;;;3.87;3.53;;;29.30;1.00;;;;;;5032084;28;20520;-77
2022/08/16 12:10:54;;;;;;;3.03;2.83;;;29.60;1.00;;;;;;5025180;28;20441;-77
2022/08/16 12:13:19;;;;;;;3.83;3.03;;;30.00;1.00;;;;;;5032664;28;20434;-69
2022/08/16 12:15:45;;;;;;;2.90;2.70;;;30.40;1.00;;;;;;5032484;28;20449;-68
2022/08/16 12:18:12;;;;;;;3.20;2.87;;;30.40;1.00;;;;;;5017907;28;20696;-69
2022/08/16 12:20:42;;;;;;;7.00;2.57;;;30.30;1.00;;;;;;5012343;28;20214;-69
2022/08/16 12:23:08;;;;;;;3.60;2.80;;;30.30;1.00;;;;;;5025252;28;20462;-69
2022/08/16 12:25:34;;;;;;;2.60;2.50;;;30.10;1.00;;;;;;5019661;28;20473;-69
2022/08/16 12:28:01;;;;;;;2.73;2.53;;;30.00;1.00;;;;;;5014843;28;20443;-69
2022/08/16 12:30:29;;;;;;;2.90;2.60;;;29.90;1.00;;;;;;5017003;28;20504;-69
2022/08/16 12:32:58;;;;;;;3.20;2.90;;;29.90;1.00;;;;;;5016244;28;20492;-69
2022/08/16 12:35:25;;;;;;;2.70;2.50;;;29.80;1.00;;;;;;5024858;28;20418;-69
2022/08/16 12:37:51;;;;;;;3.07;2.77;;;29.70;1.00;;;;;;5029641;28;20491;-69
2022/08/16 12:40:21;;;;;;;3.20;2.80;;;29.80;1.00;;;;;;5026649;28;20446;-69
2022/08/16 12:42:50;;;;;;;3.00;2.40;;;30.00;1.00;;;;;;5028063;28;20193;-69
2022/08/16 12:45:19;;;;;;;3.87;2.33;;;30.20;1.00;;;;;;5016264;28;20786;-69
2022/08/16 12:50:29;;;;;;;2.33;2.13;;;30.40;1.00;;;;;;5032642;28;20457;-69
2022/08/16 12:52:55;;;;;;;6.30;2.20;;;30.60;1.00;;;;;;5024032;28;20446;-69
2022/08/16 12:55:22;;;;;;;1.90;1.70;;;30.80;1.00;;;;;;5021265;28;20188;-69
2022/08/16 12:57:51;;;;;;;2.20;2.00;;;31.10;1.00;;;;;;5028183;28;20438;-77
2022/08/16 13:00:17;;;;;;;2.33;2.13;;;31.30;1.00;;;;;;5027904;28;20419;-77
2022/08/16 13:02:45;;;;;;;3.10;2.30;;;31.10;1.00;;;;;;5029488;28;20951;-77
2022/08/16 13:05:19;;;;;;;3.30;2.10;;;30.80;1.00;;;;;;5025224;28;20430;-77
2022/08/16 13:07:45;;;;;;;2.27;2.07;;;30.50;1.00;;;;;;5021291;28;20488;-77
2022/08/16 13:10:45;;;;;;;2.40;2.20;;;30.40;1.00;;;;;;5026703;28;20475;-77
2022/08/16 13:13:23;;;;;;;1.83;1.73;;;30.40;1.00;;;;;;5017056;28;20624;-77
2022/08/16 13:15:56;;;;;;;2.67;1.80;;;30.60;1.00;;;;;;5024752;28;20792;-76
2022/08/16 13:18:34;;;;;;;2.37;2.17;;;30.90;1.00;;;;;;5021057;28;20445;-78
2022/08/16 13:21:04;;;;;;;2.50;2.00;;;31.10;1.00;;;;;;5024685;28;20434;-77